Time;durP1;ratioP1;P1;durP2;ratioP2;P2;SDS_P1;SDS_P2;PMS_P1;PMS_P2;Temp;Humidity;BMP_temperature;BMP_pressure;BME280_temperature;BME280_humidity;BME280_pressure;Samples;Min_cycle;Max_cycle;Signal;HPM_P1;HPM_P2
2022/01/28 00:00:18;;;;;;;25.40;16.90;;;;;;;0.39;88.13;98789.06;109209;1276;23439;-53
2022/01/28 00:05:20;;;;;;;28.30;16.20;;;;;;;0.42;87.92;98785.81;109243;1274;23353;-52
2022/01/28 00:07:49;;;;;;;26.80;16.10;;;;;;;0.42;88.04;98786.71;109131;1274;139704;-52
2022/01/28 00:10:20;;;;;;;27.80;16.10;;;;;;;0.43;88.03;98781.75;109190;1274;22838;-52
2022/01/28 00:36:27;;;;;;;26.00;15.00;;;;;;;0.45;88.22;98764.71;109145;1274;138289;-52
2022/01/28 00:40:29;;;;;;;23.70;14.80;;;;;;;0.47;87.73;98742.27;109194;1276;22510;-53
2022/01/28 00:42:57;;;;;;;29.20;15.60;;;;;;;0.47;87.77;98735.68;109233;1274;138707;-52
2022/01/28 00:45:25;;;;;;;26.50;13.80;;;;;;;0.48;87.58;98736.21;109185;1276;22456;-52
2022/01/28 00:47:53;;;;;;;25.80;14.70;;;;;;;0.46;87.49;98726.08;109273;1274;22463;-52
2022/01/28 00:50:21;;;;;;;25.90;15.50;;;;;;;0.49;87.58;98725.58;109147;1274;138390;-52
2022/01/28 00:52:49;;;;;;;28.80;16.90;;;;;;;0.47;87.60;98717.95;109171;1275;23698;-52
2022/01/28 00:55:17;;;;;;;24.80;15.20;;;;;;;0.48;87.39;98713.27;109173;1274;138232;-52
2022/01/28 00:57:45;;;;;;;25.40;14.60;;;;;;;0.49;87.17;98711.02;109344;1273;22464;-53
2022/01/28 01:00:13;;;;;;;28.90;15.80;;;;;;;0.50;87.40;98708.43;109315;1274;22520;-53
2022/01/28 01:02:41;;;;;;;26.40;16.00;;;;;;;0.50;87.51;98702.65;109163;1274;139389;-53
2022/01/28 01:05:09;;;;;;;28.30;15.80;;;;;;;0.51;87.21;98700.84;109348;1273;22867;-53
2022/01/28 01:07:37;;;;;;;27.30;16.30;;;;;;;0.51;87.55;98693.86;109267;1274;139024;-52
2022/01/28 01:13:09;;;;;;;28.20;16.50;;;;;;;0.52;87.26;98688.09;102036;1310;545244;-53
2022/01/28 01:15:42;;;;;;;25.20;15.80;;;;;;;0.50;87.20;98680.39;104030;1284;22633;-50
2022/01/28 01:23:24;;;;;;;25.00;16.00;;;;;;;0.46;87.35;98663.79;104347;1284;22553;-53
2022/01/28 01:28:35;;;;;;;24.60;16.20;;;;;;;0.42;87.11;98655.21;104552;1284;22559;-51
2022/01/28 01:31:05;;;;;;;28.30;15.60;;;;;;;0.40;86.95;98655.75;108505;1282;138341;-52
2022/01/28 01:33:56;;;;;;;24.80;14.70;;;;;;;0.38;86.91;98653.05;108662;1283;22453;-52
2022/01/28 01:36:24;;;;;;;24.60;15.00;;;;;;;0.36;87.18;98644.19;108634;1283;22467;-52
2022/01/28 01:38:53;;;;;;;25.30;14.60;;;;;;;0.35;86.72;98634.38;108383;1283;138666;-52
2022/01/28 01:41:31;;;;;;;24.60;14.80;;;;;;;0.37;87.08;98632.06;109271;1276;22404;-52
2022/01/28 01:44:07;;;;;;;28.40;14.50;;;;;;;0.35;87.07;98622.88;109052;1276;140631;-52
2022/01/28 01:52:05;;;;;;;27.90;15.80;;;;;;;0.38;86.74;98620.27;109133;1275;22456;-52
2022/01/28 01:54:43;;;;;;;27.30;14.90;;;;;;;0.38;86.89;98619.95;109065;1276;139266;-53
2022/01/28 01:57:12;;;;;;;32.30;15.70;;;;;;;0.38;86.97;98619.24;109358;1274;23144;-53
2022/01/28 01:59:40;;;;;;;28.10;14.60;;;;;;;0.38;86.79;98618.29;109262;1274;23166;-52
2022/01/28 02:02:08;;;;;;;26.40;16.10;;;;;;;0.38;86.91;98613.10;109151;1275;140241;-51
2022/01/28 02:04:37;;;;;;;26.30;15.40;;;;;;;0.38;86.77;98607.20;109350;1274;22491;-52
2022/01/28 02:07:05;;;;;;;26.10;15.40;;;;;;;0.39;86.93;98605.71;109171;1274;138791;-52
2022/01/28 02:09:33;;;;;;;26.30;15.20;;;;;;;0.40;87.09;98608.05;109329;1274;22575;-52
2022/01/28 02:12:01;;;;;;;29.90;16.10;;;;;;;0.40;86.98;98605.96;109305;1274;23277;-51
2022/01/28 02:14:30;;;;;;;30.50;17.10;;;;;;;0.39;86.76;98603.04;109163;1274;138444;-51
2022/01/28 02:16:58;;;;;;;36.40;18.30;;;;;;;0.39;86.91;98602.58;109304;1274;22503;-51
2022/01/28 02:19:27;;;;;;;34.80;16.90;;;;;;;0.40;87.01;98603.45;109194;1274;138812;-51
2022/01/28 02:21:55;;;;;;;28.80;15.80;;;;;;;0.39;87.25;98602.79;109356;1274;22487;-51
2022/01/28 02:24:35;;;;;;;32.90;16.40;;;;;;;0.38;87.36;98599.86;109372;1276;23141;-52
2022/01/28 02:27:04;;;;;;;35.10;16.60;;;;;;;0.37;87.45;98602.23;109212;1276;138632;-51
2022/01/28 02:29:34;;;;;;;31.80;17.70;;;;;;;0.33;87.28;98596.80;109347;1276;22512;-51
2022/01/28 02:32:05;;;;;;;29.40;16.50;;;;;;;0.32;87.42;98593.02;109211;1276;138498;-51
2022/01/28 02:34:35;;;;;;;25.10;14.80;;;;;;;0.33;87.58;98594.11;109257;1276;22430;-52
2022/01/28 02:37:03;;;;;;;30.00;16.10;;;;;;;0.32;87.40;98589.42;109178;1277;139715;-51
2022/01/28 02:39:33;;;;;;;28.00;16.30;;;;;;;0.31;87.63;98592.23;109295;1277;22425;-51
2022/01/28 02:42:13;;;;;;;32.00;19.20;;;;;;;0.30;87.63;98590.75;109306;1276;23734;-52
2022/01/28 02:44:50;;;;;;;27.40;16.60;;;;;;;0.31;87.65;98587.61;109136;1276;138258;-52
2022/01/28 02:47:30;;;;;;;;;;;;;;;0.31;87.67;98584.23;109366;1277;22461;-52
2022/01/28 02:49:58;;;;;;;26.60;14.30;;;;;;;0.29;87.38;98577.11;109221;1276;124338;-51
2022/01/28 02:52:38;;;;;;;23.90;14.30;;;;;;;0.29;87.58;98577.58;109366;1276;22503;-52
2022/01/28 02:55:11;;;;;;;23.80;14.10;;;;;;;0.29;87.82;98572.95;109287;1276;139112;-52
2022/01/28 02:57:50;;;;;;;27.90;14.50;;;;;;;0.29;87.60;98574.77;109289;1276;23230;-52
2022/01/28 03:00:18;;;;;;;21.20;13.40;;;;;;;0.30;87.54;98579.58;109311;1276;22438;-51
2022/01/28 03:02:45;;;;;;;19.50;12.50;;;;;;;0.30;87.76;98572.41;109141;1277;137637;-51
2022/01/28 03:05:30;;;;;;;22.50;13.50;;;;;;;0.30;87.74;98572.36;109301;1276;22464;-52
2022/01/28 03:08:01;;;;;;;24.10;14.00;;;;;;;0.31;88.03;98572.61;109218;1276;137740;-51
2022/01/28 03:11:17;;;;;;;21.80;13.20;;;;;;;0.31;87.74;98569.39;109317;1276;22449;-51
2022/01/28 03:16:08;;;;;;;20.80;12.10;;;;;;;0.29;88.06;98558.86;109334;1276;22483;-52
2022/01/28 03:18:48;;;;;;;21.10;12.30;;;;;;;0.31;87.55;98559.09;109358;1276;22540;-52
2022/01/28 03:23:53;;;;;;;22.60;12.10;;;;;;;0.31;87.86;98561.48;109291;1277;22434;-52
2022/01/28 03:26:25;;;;;;;18.90;11.60;;;;;;;0.32;87.57;98561.98;109210;1276;138731;-52
2022/01/28 03:28:57;;;;;;;20.30;11.90;;;;;;;0.32;87.59;98560.16;109295;1276;23369;-52
2022/01/28 03:31:25;;;;;;;21.20;12.40;;;;;;;0.32;87.94;98561.77;109114;1277;138258;-52
2022/01/28 03:33:54;;;;;;;22.10;12.40;;;;;;;0.32;87.70;98561.06;109337;1276;22473;-51
2022/01/28 03:36:22;;;;;;;17.90;10.90;;;;;;;0.30;87.71;98561.45;109195;1277;22537;-52
2022/01/28 03:38:50;;;;;;;20.40;11.20;;;;;;;0.31;87.84;98560.65;109233;1276;138172;-52
2022/01/28 03:41:18;;;;;;;19.60;11.40;;;;;;;0.31;87.88;98552.98;109345;1276;22521;-52
2022/01/28 03:43:47;;;;;;;18.60;10.80;;;;;;;0.30;87.73;98548.05;109223;1276;138079;-52
2022/01/28 03:46:15;;;;;;;17.60;11.20;;;;;;;0.31;87.71;98545.03;109335;1276;22431;-52
2022/01/28 03:48:43;;;;;;;18.90;11.10;;;;;;;0.32;87.95;98539.84;109301;1276;22476;-52
2022/01/28 03:51:11;;;;;;;18.70;10.10;;;;;;;0.30;87.73;98525.05;109130;1276;138783;-52
2022/01/28 03:53:39;;;;;;;16.60;10.50;;;;;;;0.33;87.55;98532.90;109325;1275;22448;-52
2022/01/28 03:56:07;;;;;;;19.60;11.40;;;;;;;0.32;87.84;98533.52;109165;1276;138958;-52
2022/01/28 03:58:35;;;;;;;21.70;11.70;;;;;;;0.31;88.03;98540.20;109352;1276;23108;-52
2022/01/28 04:01:08;;;;;;;19.40;11.80;;;;;;;0.31;87.93;98538.81;109176;1276;138353;-53
2022/01/28 04:04:20;;;;;;;16.20;10.70;;;;;;;0.31;87.77;98535.92;109344;1276;22458;-52
2022/01/28 04:12:11;;;;;;;17.60;9.70;;;;;;;0.32;87.69;98532.71;109300;1277;22526;-52
2022/01/28 04:14:46;;;;;;;15.60;9.60;;;;;;;0.31;87.77;98525.46;109155;1276;138570;-52
2022/01/28 04:17:21;;;;;;;16.20;10.60;;;;;;;0.32;87.73;98524.30;109295;1276;23391;-52
2022/01/28 04:19:49;;;;;;;14.20;9.20;;;;;;;0.31;87.90;98525.78;109112;1276;138254;-52
2022/01/28 04:22:19;;;;;;;15.00;9.80;;;;;;;0.30;87.91;98524.18;109295;1277;23609;-52
2022/01/28 04:24:47;;;;;;;17.70;9.10;;;;;;;0.30;87.97;98527.44;109303;1276;22449;-52
2022/01/28 04:27:15;;;;;;;15.00;8.70;;;;;;;0.30;87.67;98526.08;109133;1276;137610;-52
2022/01/28 04:29:43;;;;;;;19.60;9.70;;;;;;;0.31;88.09;98522.77;109354;1277;22618;-52
2022/01/28 04:32:11;;;;;;;12.80;8.60;;;;;;;0.32;87.72;98519.64;109152;1276;139368;-52
2022/01/28 04:34:39;;;;;;;16.50;9.20;;;;;;;0.32;87.91;98518.66;109172;1276;24523;-53
2022/01/28 04:39:46;;;;;;;14.50;8.80;;;;;;;0.33;88.00;98528.05;109182;1276;22672;-52
2022/01/28 04:50:16;;;;;;;15.10;9.00;;;;;;;0.33;88.00;98529.12;109165;1277;138683;-51
2022/01/28 04:59:21;;;;;;;13.90;7.80;;;;;;;0.33;88.13;98515.07;109263;1277;22456;-52
2022/01/28 05:23:22;;;;;;;16.30;9.00;;;;;;;0.40;87.98;98494.74;109076;1276;138352;-52
2022/01/28 05:27:44;;;;;;;16.40;8.50;;;;;;;0.41;87.94;98495.77;109195;1277;138153;-52
2022/01/28 05:30:12;;;;;;;14.00;8.30;;;;;;;0.41;88.03;98491.66;109289;1277;23328;-52
2022/01/28 05:32:40;;;;;;;15.40;8.20;;;;;;;0.42;87.96;98493.30;109148;1276;138438;-52
2022/01/28 05:35:09;;;;;;;16.30;9.10;;;;;;;0.43;88.11;98498.15;109297;1276;22454;-52
2022/01/28 05:37:37;;;;;;;16.30;9.10;;;;;;;0.43;88.07;98498.48;109399;1274;23397;-52
2022/01/28 05:40:05;;;;;;;13.80;9.00;;;;;;;0.43;88.06;98495.55;109451;1271;138403;-52
2022/01/28 05:42:33;;;;;;;18.60;10.10;;;;;;;0.44;87.94;98493.02;109525;1271;22443;-52
2022/01/28 05:45:01;;;;;;;17.20;10.30;;;;;;;0.44;88.02;98489.87;109427;1271;138982;-52
2022/01/28 05:47:32;;;;;;;17.90;10.20;;;;;;;0.46;87.98;98489.66;109552;1271;22448;-52
2022/01/28 05:50:00;;;;;;;18.10;10.10;;;;;;;0.47;88.31;98492.54;109375;1271;138608;-51
2022/01/28 05:52:31;;;;;;;18.90;11.40;;;;;;;0.48;87.92;98493.42;109547;1271;22488;-52
2022/01/28 05:55:00;;;;;;;18.60;10.90;;;;;;;0.49;88.00;98497.71;109457;1273;22410;-52
2022/01/28 05:57:27;;;;;;;19.90;10.20;;;;;;;0.52;87.88;98497.48;109451;1271;138395;-52
2022/01/28 05:59:55;;;;;;;17.60;10.50;;;;;;;0.52;87.83;98504.83;109569;1271;22554;-52
2022/01/28 06:02:23;;;;;;;16.00;10.10;;;;;;;0.53;87.90;98505.02;109436;1271;138485;-52
2022/01/28 06:04:52;;;;;;;20.00;12.40;;;;;;;0.55;88.11;98502.09;109524;1271;22464;-51
2022/01/28 06:07:21;;;;;;;17.50;10.90;;;;;;;0.57;88.15;98501.34;109542;1271;22559;-52
2022/01/28 06:09:50;;;;;;;17.80;9.80;;;;;;;0.58;88.03;98497.40;109411;1271;137985;-52
2022/01/28 06:12:20;;;;;;;16.80;10.50;;;;;;;0.56;88.15;98496.53;109485;1271;22550;-52
2022/01/28 06:15:05;;;;;;;17.10;10.30;;;;;;;0.60;87.98;98501.86;109418;1271;138170;-52
2022/01/28 06:17:33;;;;;;;16.30;9.80;;;;;;;0.61;87.79;98499.59;109549;1271;22501;-52
2022/01/28 06:20:02;;;;;;;19.10;11.00;;;;;;;0.62;87.88;98499.79;109388;1268;138103;-52
2022/01/28 06:22:31;;;;;;;18.30;10.40;;;;;;;0.64;87.93;98498.30;109563;1271;22550;-52
2022/01/28 06:24:58;;;;;;;20.20;10.70;;;;;;;0.65;87.89;98498.82;109449;1271;23442;-52
2022/01/28 06:27:27;;;;;;;17.80;10.30;;;;;;;0.65;87.87;98493.04;109440;1271;138060;-52
2022/01/28 06:29:55;;;;;;;23.90;12.70;;;;;;;0.67;87.64;98495.35;109530;1271;23259;-52
2022/01/28 06:32:23;;;;;;;20.60;11.70;;;;;;;0.68;87.82;98497.52;109362;1271;138568;-52
2022/01/28 06:34:51;;;;;;;16.70;9.80;;;;;;;0.68;87.58;98495.30;109548;1271;22520;-52
2022/01/28 06:37:19;;;;;;;17.20;9.40;;;;;;;0.69;88.03;98499.62;109505;1271;22488;-52
2022/01/28 06:39:47;;;;;;;15.90;9.50;;;;;;;0.72;87.92;98499.34;109387;1271;137800;-52
2022/01/28 06:42:15;;;;;;;16.10;10.10;;;;;;;0.72;87.87;98498.50;109506;1271;23147;-52
2022/01/28 06:44:43;;;;;;;17.40;10.00;;;;;;;0.75;87.90;98502.85;109331;1271;137835;-52
2022/01/28 06:47:12;;;;;;;14.40;9.80;;;;;;;0.75;87.67;98505.29;109526;1271;22460;-52
2022/01/28 06:49:40;;;;;;;19.30;10.50;;;;;;;0.75;87.84;98510.08;109513;1271;22434;-52
2022/01/28 06:52:08;;;;;;;18.60;11.70;;;;;;;0.76;87.77;98512.83;109407;1271;137617;-52
2022/01/28 06:54:40;;;;;;;19.40;11.70;;;;;;;0.75;87.71;98512.59;109548;1271;23705;-52
2022/01/28 06:57:08;;;;;;;17.80;10.90;;;;;;;0.75;87.90;98509.32;109323;1273;139218;-52
2022/01/28 06:59:36;;;;;;;16.20;10.60;;;;;;;0.74;87.57;98510.90;109508;1271;22443;-52
2022/01/28 07:02:05;;;;;;;19.50;11.20;;;;;;;0.74;87.75;98510.36;109400;1271;138972;-52
2022/01/28 07:04:33;;;;;;;18.60;10.80;;;;;;;0.75;87.71;98513.33;109411;1271;22681;-52
2022/01/28 07:07:01;;;;;;;20.30;11.70;;;;;;;0.76;87.88;98511.71;109413;1273;23582;-52
2022/01/28 07:09:29;;;;;;;16.10;10.20;;;;;;;0.77;87.86;98510.55;109401;1271;137952;-52
2022/01/28 07:11:56;;;;;;;18.60;10.80;;;;;;;0.78;87.69;98508.08;109507;1271;22506;-52
2022/01/28 07:14:24;;;;;;;18.60;10.70;;;;;;;0.81;87.85;98505.45;109423;1271;139830;-52
2022/01/28 07:16:52;;;;;;;17.70;10.40;;;;;;;0.83;87.83;98499.79;109504;1271;22487;-52
2022/01/28 07:19:20;;;;;;;19.40;10.90;;;;;;;0.86;87.67;98497.23;109379;1271;22462;-52
2022/01/28 07:21:48;;;;;;;16.40;10.30;;;;;;;0.88;87.67;98496.04;109319;1274;137984;-52
2022/01/28 07:24:17;;;;;;;24.10;12.10;;;;;;;0.89;87.66;98492.38;109484;1271;22442;-52
2022/01/28 07:26:45;;;;;;;20.10;11.70;;;;;;;0.93;87.78;98496.59;109343;1271;138222;-52
2022/01/28 07:29:13;;;;;;;22.80;12.40;;;;;;;0.96;87.55;98495.45;109493;1272;22461;-52
2022/01/28 07:31:42;;;;;;;21.60;13.90;;;;;;;0.99;87.47;98497.48;109519;1271;22449;-52
2022/01/28 07:34:10;;;;;;;22.00;12.50;;;;;;;1.02;87.42;98496.69;109383;1271;138874;-52
2022/01/28 07:36:39;;;;;;;18.60;12.00;;;;;;;1.05;87.28;98495.84;109580;1271;23984;-52
2022/01/28 07:39:07;;;;;;;21.60;12.70;;;;;;;1.09;87.37;98494.86;109396;1271;138300;-54
2022/01/28 07:41:36;;;;;;;20.70;12.30;;;;;;;1.10;87.26;98493.09;109567;1271;22505;-55
2022/01/28 07:44:08;;;;;;;19.90;12.20;;;;;;;1.15;87.02;98492.44;109413;1271;139612;-55
2022/01/28 07:46:36;;;;;;;23.20;12.70;;;;;;;1.19;87.08;98492.85;109505;1271;23449;-55
2022/01/28 07:49:04;;;;;;;16.10;11.00;;;;;;;1.21;86.94;98492.38;109497;1271;22624;-56
2022/01/28 07:51:35;;;;;;;21.80;12.20;;;;;;;1.19;86.76;98491.32;109374;1271;138879;-56
2022/01/28 07:54:04;;;;;;;21.10;12.70;;;;;;;1.22;86.77;98489.42;109502;1271;22534;-56
2022/01/28 07:56:32;;;;;;;18.00;11.40;;;;;;;1.23;86.61;98486.45;109455;1271;137971;-56
2022/01/28 07:59:06;;;;;;;18.40;11.70;;;;;;;1.25;86.48;98487.52;109523;1271;22470;-56
2022/01/28 08:01:35;;;;;;;17.90;11.10;;;;;;;1.25;86.17;98484.21;109523;1271;23520;-56
2022/01/28 08:04:04;;;;;;;17.70;10.20;;;;;;;1.26;86.24;98484.95;109309;1274;138297;-56
2022/01/28 08:06:33;;;;;;;18.80;10.80;;;;;;;1.26;86.05;98481.23;109413;1273;22444;-56
2022/01/28 08:09:01;;;;;;;16.50;10.00;;;;;;;1.26;85.95;98484.08;109359;1271;139108;-56
2022/01/28 08:11:31;;;;;;;18.60;10.60;;;;;;;1.26;85.97;98477.38;109522;1271;22441;-56
2022/01/28 08:14:00;;;;;;;17.60;10.60;;;;;;;1.26;85.66;98471.23;109325;1271;139188;-56
2022/01/28 08:16:28;;;;;;;15.60;9.00;;;;;;;1.31;85.86;98470.95;109462;1271;22539;-56
2022/01/28 08:18:56;;;;;;;16.40;9.40;;;;;;;1.32;85.59;98464.10;109441;1271;22393;-56
2022/01/28 08:21:24;;;;;;;17.20;10.80;;;;;;;1.35;85.45;98469.52;109284;1272;138502;-56
2022/01/28 08:23:52;;;;;;;20.90;11.90;;;;;;;1.37;85.21;98465.83;109469;1271;22419;-56
2022/01/28 08:26:21;;;;;;;20.10;12.10;;;;;;;1.37;85.43;98470.19;109325;1271;138220;-56
2022/01/28 08:28:49;;;;;;;20.70;10.60;;;;;;;1.39;85.28;98468.40;109398;1271;22506;-56
2022/01/28 08:31:17;;;;;;;18.00;10.70;;;;;;;1.38;84.89;98467.45;109430;1271;22266;-56
2022/01/28 08:33:46;;;;;;;20.70;11.10;;;;;;;1.39;84.84;98470.21;109280;1271;137840;-56
2022/01/28 08:36:14;;;;;;;20.10;11.00;;;;;;;1.39;84.77;98472.85;109519;1271;22515;-56
2022/01/28 08:38:47;;;;;;;22.20;11.50;;;;;;;1.39;84.66;98476.36;109302;1271;138966;-56
2022/01/28 08:41:15;;;;;;;17.30;10.40;;;;;;;1.39;84.59;98471.23;109440;1271;22554;-56
2022/01/28 08:43:43;;;;;;;16.40;10.40;;;;;;;1.40;84.37;98471.61;109449;1271;22412;-57
2022/01/28 08:46:11;;;;;;;16.00;10.10;;;;;;;1.40;84.35;98466.56;109281;1273;138107;-56
2022/01/28 08:48:39;;;;;;;15.40;10.10;;;;;;;1.41;84.43;98472.30;109316;1273;22466;-56
2022/01/28 08:51:08;;;;;;;16.20;9.10;;;;;;;1.42;84.22;98471.67;109382;1271;139071;-56
2022/01/28 08:53:38;;;;;;;14.80;8.40;;;;;;;1.43;84.25;98473.06;109446;1271;23124;-56
2022/01/28 08:56:06;;;;;;;16.10;9.60;;;;;;;1.43;84.14;98471.38;109264;1273;138936;-56
2022/01/28 08:58:35;;;;;;;21.30;10.50;;;;;;;1.43;84.33;98474.10;109540;1271;22436;-56
2022/01/28 09:01:03;;;;;;;18.00;10.80;;;;;;;1.42;84.11;98472.25;109482;1270;22483;-56
2022/01/28 09:03:33;;;;;;;16.90;10.50;;;;;;;1.43;84.27;98473.77;109369;1270;138130;-56
2022/01/28 09:06:08;;;;;;;18.70;10.60;;;;;;;1.43;84.48;98473.94;109442;1273;23106;-59
2022/01/28 09:08:39;;;;;;;18.20;10.70;;;;;;;1.40;84.04;98472.05;109388;1271;138309;-56
2022/01/28 09:11:32;;;;;;;18.70;10.60;;;;;;;1.41;84.26;98469.33;109484;1270;23331;-56
2022/01/28 09:14:00;;;;;;;15.30;9.90;;;;;;;1.41;84.21;98469.73;109394;1271;139343;-56
2022/01/28 09:16:28;;;;;;;17.70;9.80;;;;;;;1.40;84.15;98468.05;109483;1271;22435;-56
2022/01/28 09:18:56;;;;;;;20.80;10.00;;;;;;;1.40;84.27;98461.08;109555;1271;22296;-56
2022/01/28 09:21:24;;;;;;;17.90;9.20;;;;;;;1.41;84.31;98455.70;109249;1274;138632;-56
2022/01/28 09:23:53;;;;;;;14.60;9.30;;;;;;;1.45;84.21;98454.86;109520;1271;22462;-55
2022/01/28 09:26:26;;;;;;;16.60;10.90;;;;;;;1.48;84.24;98449.58;109448;1271;138989;-55
2022/01/28 09:28:54;;;;;;;13.80;9.50;;;;;;;1.51;84.45;98447.42;109404;1271;22887;-55
2022/01/28 09:31:22;;;;;;;15.60;9.60;;;;;;;1.55;84.39;98443.05;109512;1271;22770;-56
2022/01/28 09:33:51;;;;;;;14.60;9.00;;;;;;;1.60;84.33;98440.26;109414;1271;139443;-56
2022/01/28 09:36:19;;;;;;;15.30;9.50;;;;;;;1.63;84.18;98429.02;109457;1271;22457;-56
2022/01/28 09:38:48;;;;;;;16.80;9.50;;;;;;;1.66;83.86;98426.16;109426;1271;137310;-56
2022/01/28 09:41:16;;;;;;;15.40;9.90;;;;;;;1.69;83.79;98421.35;109528;1271;23458;-56
2022/01/28 09:43:45;;;;;;;16.00;9.90;;;;;;;1.72;83.78;98419.56;109487;1271;22534;-55
2022/01/28 09:46:14;;;;;;;14.40;9.60;;;;;;;1.75;83.55;98416.61;109397;1271;137848;-56
2022/01/28 09:48:42;;;;;;;16.80;11.00;;;;;;;1.78;83.58;98412.23;109531;1271;22492;-56
2022/01/28 09:51:10;;;;;;;16.50;10.50;;;;;;;1.82;83.29;98404.92;109138;1271;140147;-56
2022/01/28 09:53:38;;;;;;;14.40;10.20;;;;;;;1.86;83.37;98399.67;109482;1273;23005;-56
2022/01/28 09:56:06;;;;;;;15.80;10.20;;;;;;;1.87;82.97;98394.26;109251;1274;139895;-56
2022/01/28 09:58:36;;;;;;;15.10;10.20;;;;;;;1.92;83.04;98396.66;109494;1271;22491;-56
2022/01/28 10:01:04;;;;;;;14.70;9.90;;;;;;;1.98;83.00;98397.45;109557;1271;22502;-57
2022/01/28 10:03:35;;;;;;;17.20;9.50;;;;;;;2.03;82.80;98401.38;109370;1271;138502;-56
2022/01/28 10:06:03;;;;;;;15.00;9.90;;;;;;;2.07;82.59;98397.39;109532;1271;22420;-56
2022/01/28 10:08:33;;;;;;;14.10;8.90;;;;;;;2.10;82.50;98395.07;109408;1271;139537;-56
2022/01/28 10:11:04;;;;;;;14.70;9.50;;;;;;;2.12;82.32;98391.30;109503;1271;22517;-56
2022/01/28 10:13:45;;;;;;;13.80;9.00;;;;;;;2.14;82.14;98385.33;109487;1271;23386;-57
2022/01/28 10:16:16;;;;;;;16.10;11.00;;;;;;;2.14;81.98;98379.59;109442;1271;140115;-56
2022/01/28 10:18:48;;;;;;;15.60;10.30;;;;;;;2.12;81.83;98379.33;109477;1271;23034;-56
2022/01/28 10:21:16;;;;;;;17.60;10.40;;;;;;;2.10;81.75;98375.77;109374;1271;137784;-56
2022/01/28 10:24:09;;;;;;;16.70;10.90;;;;;;;2.08;81.69;98376.41;109478;1269;22415;-56
2022/01/28 10:26:41;;;;;;;15.20;10.10;;;;;;;2.07;81.61;98375.85;109368;1271;138605;-56
2022/01/28 10:29:16;;;;;;;19.30;11.40;;;;;;;2.05;81.52;98371.77;109408;1274;23166;-56
2022/01/28 10:31:55;;;;;;;25.30;11.70;;;;;;;2.05;81.71;98367.24;109540;1271;22444;-56
2022/01/28 10:34:31;;;;;;;20.00;10.90;;;;;;;2.05;81.71;98359.80;109380;1271;138923;-56
2022/01/28 10:37:11;;;;;;;19.50;11.00;;;;;;;2.07;81.90;98359.64;109508;1271;22415;-56
2022/01/28 10:39:42;;;;;;;18.40;11.00;;;;;;;2.09;81.96;98353.95;108520;1271;137990;-56
2022/01/28 10:42:11;;;;;;;17.20;10.30;;;;;;;2.10;81.81;98354.06;105318;1271;23116;-54
2022/01/28 10:44:53;;;;;;;21.70;11.50;;;;;;;2.11;81.88;98350.54;109245;1273;137902;-55
2022/01/28 10:47:35;;;;;;;19.80;11.90;;;;;;;2.12;81.74;98343.91;109581;1271;22452;-55
2022/01/28 10:50:28;;;;;;;16.30;10.60;;;;;;;2.12;81.83;98334.61;109496;1271;22457;-55
2022/01/28 10:52:56;;;;;;;17.30;10.70;;;;;;;2.13;81.70;98331.73;109483;1271;23301;-55
2022/01/28 10:55:24;;;;;;;15.70;9.70;;;;;;;2.13;81.51;98325.50;109452;1273;23529;-55
2022/01/28 10:57:57;;;;;;;16.10;10.50;;;;;;;2.13;81.49;98325.83;109381;1271;138904;-55
2022/01/28 11:00:32;;;;;;;15.90;10.10;;;;;;;2.14;81.63;98324.57;109451;1271;22448;-55
2022/01/28 11:03:01;;;;;;;17.10;10.60;;;;;;;2.17;81.60;98321.55;109404;1271;139739;-56
2022/01/28 11:05:31;;;;;;;16.00;9.80;;;;;;;2.16;81.65;98308.69;109435;1270;22458;-56
2022/01/28 11:08:00;;;;;;;20.70;9.50;;;;;;;2.20;81.52;98306.42;109461;1271;22526;-56
2022/01/28 11:10:28;;;;;;;18.50;10.50;;;;;;;2.23;81.42;98301.88;109428;1271;138958;-56
2022/01/28 11:12:58;;;;;;;14.90;9.70;;;;;;;2.28;81.40;98292.73;109512;1271;22550;-56
2022/01/28 11:15:26;;;;;;;14.80;10.10;;;;;;;2.34;81.30;98287.48;109401;1271;138192;-56
2022/01/28 11:17:54;;;;;;;13.40;9.80;;;;;;;2.41;81.23;98291.64;109481;1271;23235;-56
2022/01/28 11:20:23;;;;;;;16.40;9.70;;;;;;;2.47;81.00;98288.67;109304;1274;22456;-56
2022/01/28 11:22:55;;;;;;;16.30;10.60;;;;;;;2.53;80.71;98287.27;109436;1271;138208;-56
2022/01/28 11:25:55;;;;;;;14.90;10.30;;;;;;;2.56;80.60;98284.64;109459;1271;23144;-57
2022/01/28 11:28:55;;;;;;;13.70;9.40;;;;;;;2.59;80.27;98287.23;109354;1271;138420;-57
2022/01/28 11:31:43;;;;;;;14.40;8.40;;;;;;;2.60;79.93;98291.27;109458;1271;23687;-57
2022/01/28 11:34:30;;;;;;;17.00;10.40;;;;;;;2.60;79.63;98291.92;109306;1272;138387;-57
2022/01/28 11:37:31;;;;;;;17.90;11.70;;;;;;;2.61;79.70;98287.84;109435;1271;23069;-57
2022/01/28 11:40:10;;;;;;;16.80;10.40;;;;;;;2.63;79.61;98286.55;109342;1271;139306;-57
2022/01/28 11:42:38;;;;;;;14.90;10.20;;;;;;;2.67;79.46;98284.42;109524;1271;22244;-57
2022/01/28 11:45:10;;;;;;;18.40;11.70;;;;;;;2.70;79.51;98282.04;109382;1270;140037;-57
2022/01/28 11:47:40;;;;;;;17.30;9.40;;;;;;;2.74;79.23;98280.80;109462;1271;22664;-57
2022/01/28 11:50:15;;;;;;;12.70;8.60;;;;;;;2.75;79.16;98286.59;109502;1271;22423;-57
2022/01/28 11:52:54;;;;;;;14.20;8.50;;;;;;;2.77;78.85;98285.48;109281;1271;139028;-57
2022/01/28 11:55:25;;;;;;;14.80;8.70;;;;;;;2.75;78.56;98284.11;109508;1271;22468;-57
2022/01/28 11:58:01;;;;;;;13.30;7.80;;;;;;;2.74;78.17;98282.21;109402;1271;140609;-57
2022/01/28 12:00:37;;;;;;;12.30;8.00;;;;;;;2.71;77.95;98277.06;109499;1271;23393;-57
2022/01/28 12:03:30;;;;;;;10.40;7.40;;;;;;;2.69;77.78;98278.09;109249;1273;139038;-57
2022/01/28 12:06:07;;;;;;;13.60;8.00;;;;;;;2.67;77.58;98275.55;109545;1270;22426;-57
2022/01/28 12:08:36;;;;;;;7.30;5.50;;;;;;;2.67;77.52;98271.91;109409;1271;139033;-57
2022/01/28 12:11:08;;;;;;;10.60;7.10;;;;;;;2.67;77.40;98277.88;109457;1271;22569;-57
2022/01/28 12:13:53;;;;;;;12.30;6.90;;;;;;;2.68;77.34;98275.09;109414;1273;22341;-59
2022/01/28 12:16:41;;;;;;;11.40;7.40;;;;;;;2.68;77.42;98274.30;109319;1271;138067;-57
2022/01/28 12:19:17;;;;;;;9.70;6.70;;;;;;;2.68;77.35;98272.63;109470;1271;22441;-57
2022/01/28 12:22:08;;;;;;;12.70;7.10;;;;;;;2.67;77.15;98272.96;109283;1273;137483;-57
2022/01/28 12:24:37;;;;;;;10.80;6.90;;;;;;;2.65;77.09;98273.41;109409;1271;22432;-57
2022/01/28 12:27:13;;;;;;;9.10;6.60;;;;;;;2.63;77.19;98274.39;109247;1271;137430;-57
2022/01/28 12:29:46;;;;;;;13.90;7.00;;;;;;;2.61;77.03;98271.23;109374;1271;22431;-57
2022/01/28 12:32:20;;;;;;;10.00;6.80;;;;;;;2.59;77.16;98269.04;109219;1271;22587;-58
2022/01/28 12:34:48;;;;;;;11.30;7.10;;;;;;;2.60;77.03;98266.81;109308;1271;137701;-57
2022/01/28 12:37:21;;;;;;;11.10;6.80;;;;;;;2.59;76.99;98267.92;109439;1271;23447;-57
2022/01/28 12:39:59;;;;;;;8.90;6.00;;;;;;;2.58;76.93;98261.94;109355;1271;139345;-53
2022/01/28 12:42:32;;;;;;;10.30;6.70;;;;;;;2.58;76.58;98268.08;109502;1271;22431;-54
2022/01/28 12:45:00;;;;;;;11.10;6.70;;;;;;;2.57;76.59;98257.57;109321;1271;138320;-53
2022/01/28 12:47:31;;;;;;;10.80;6.50;;;;;;;2.56;76.42;98256.35;109423;1271;22502;-53
2022/01/28 12:50:03;;;;;;;12.80;6.90;;;;;;;2.56;76.38;98260.27;109485;1271;22503;-54
2022/01/28 12:52:35;;;;;;;10.50;6.70;;;;;;;2.54;76.22;98258.58;109373;1271;137781;-53
2022/01/28 12:55:04;;;;;;;14.30;6.90;;;;;;;2.54;76.06;98256.85;109483;1271;23164;-53
2022/01/28 12:57:32;;;;;;;10.00;6.20;;;;;;;2.52;75.89;98252.83;109305;1271;137446;-53
2022/01/28 13:00:00;;;;;;;11.50;7.20;;;;;;;2.50;75.75;98247.02;109497;1271;22616;-54
2022/01/28 13:02:33;;;;;;;8.60;5.70;;;;;;;2.47;75.64;98235.55;109389;1271;23647;-54
2022/01/28 13:10:32;;;;;;;11.70;7.10;;;;;;;2.46;75.70;98238.49;109283;1271;138102;-54
2022/01/28 13:13:07;;;;;;;12.90;6.60;;;;;;;2.45;75.59;98236.45;109465;1271;22498;-54
2022/01/28 13:15:36;;;;;;;10.00;5.60;;;;;;;2.45;75.55;98234.39;109357;1271;138618;-54